createdAt,value
2023-12-14T00:02:04.376Z,16.00
2023-12-14T00:04:31.736Z,15.60
2023-12-14T00:07:00.453Z,15.20
2023-12-14T00:09:27.692Z,15.10
2023-12-14T00:11:54.945Z,14.80
2023-12-14T00:14:22.196Z,11.80
2023-12-14T00:17:01.616Z,15.60
2023-12-14T00:19:28.909Z,13.32
2023-12-14T00:21:56.302Z,15.63
2023-12-14T00:24:24.982Z,14.55
2023-12-14T00:26:52.232Z,14.60
2023-12-14T00:29:19.503Z,12.88
2023-12-14T00:31:47.269Z,16.98
2023-12-14T00:34:22.271Z,14.57
2023-12-14T00:36:49.543Z,12.70
2023-12-14T00:39:16.809Z,13.52
2023-12-14T00:41:54.201Z,13.35
2023-12-14T00:49:41.507Z,12.60
2023-12-14T00:52:08.822Z,14.95
2023-12-14T00:57:54.438Z,16.38
2023-12-14T01:00:59.202Z,16.48
2023-12-14T01:03:33.839Z,14.73
2023-12-14T01:06:01.243Z,13.18
2023-12-14T01:08:28.518Z,18.63
2023-12-14T01:14:27.287Z,14.32
2023-12-14T01:16:54.666Z,13.60
2023-12-14T01:19:26.888Z,13.20
2023-12-14T01:21:54.131Z,13.45
2023-12-14T01:24:21.455Z,14.55
2023-12-14T01:26:48.732Z,13.70
2023-12-14T01:29:16.007Z,19.10
2023-12-14T01:31:44.654Z,16.75
2023-12-14T01:34:12.033Z,16.83
2023-12-14T01:36:48.540Z,16.45
2023-12-14T01:39:18.629Z,17.20
2023-12-14T01:41:45.914Z,19.13
2023-12-14T01:44:16.216Z,16.77
2023-12-14T01:46:55.057Z,17.00
2023-12-14T01:49:22.399Z,18.95
2023-12-14T01:51:49.626Z,13.57
2023-12-14T01:54:16.861Z,15.65
2023-12-14T01:56:44.144Z,18.10
2023-12-14T01:59:11.795Z,13.48
2023-12-14T02:01:42.816Z,15.75
2023-12-14T02:04:12.408Z,17.05
2023-12-14T02:06:40.294Z,16.83
2023-12-14T02:09:07.562Z,12.90
2023-12-14T02:11:34.984Z,14.40
2023-12-14T02:14:05.189Z,14.82
2023-12-14T02:16:32.479Z,14.40
2023-12-14T02:18:59.865Z,15.02
2023-12-14T02:21:28.526Z,14.63
2023-12-14T02:23:57.209Z,15.88
2023-12-14T02:26:24.494Z,13.73
2023-12-14T02:28:51.741Z,14.38
2023-12-14T02:31:20.550Z,13.80
2023-12-14T02:33:47.951Z,12.88
2023-12-14T02:36:15.235Z,11.57
2023-12-14T02:38:42.628Z,15.35
2023-12-14T02:41:11.399Z,12.88
2023-12-14T02:43:38.675Z,14.48
2023-12-14T02:46:05.947Z,14.60
2023-12-14T02:48:33.460Z,14.05
2023-12-14T02:51:00.833Z,11.13
2023-12-14T02:53:28.389Z,13.77
2023-12-14T02:55:55.805Z,13.20
2023-12-14T02:58:24.457Z,12.68
2023-12-14T03:00:51.753Z,13.43
2023-12-14T03:03:19.053Z,14.73
2023-12-14T03:05:46.836Z,14.05
2023-12-14T03:08:14.180Z,12.07
2023-12-14T03:10:41.522Z,14.57
2023-12-14T03:13:08.782Z,13.95
2023-12-14T03:15:37.639Z,13.55
2023-12-14T03:18:05.145Z,12.93
2023-12-14T03:20:32.535Z,14.07
2023-12-14T03:22:59.881Z,13.70
2023-12-14T03:25:27.145Z,11.60
2023-12-14T03:27:54.376Z,12.68
2023-12-14T03:30:21.695Z,13.80
2023-12-14T03:32:50.497Z,11.50
2023-12-14T03:35:17.808Z,12.13
2023-12-14T03:37:45.101Z,11.95
2023-12-14T03:40:12.569Z,12.43
2023-12-14T03:42:39.823Z,13.60
2023-12-14T03:45:08.020Z,13.20
2023-12-14T03:47:35.280Z,13.50
2023-12-14T03:50:04.681Z,13.30
2023-12-14T03:52:32.100Z,13.18
2023-12-14T03:54:59.469Z,12.30
2023-12-14T03:57:26.713Z,11.48
2023-12-14T03:59:54.009Z,12.90
2023-12-14T04:02:21.440Z,13.82
2023-12-14T04:04:48.792Z,12.52
2023-12-14T04:07:17.489Z,12.13
2023-12-14T04:09:45.662Z,13.38
2023-12-14T04:12:12.901Z,15.13
2023-12-14T04:14:40.170Z,11.93
2023-12-14T04:17:07.525Z,13.52
2023-12-14T04:19:34.826Z,12.23
2023-12-14T04:22:02.088Z,10.63
2023-12-14T04:24:30.715Z,11.43
2023-12-14T04:34:19.158Z,11.23
2023-12-14T04:36:46.796Z,15.30
2023-12-14T04:39:14.136Z,13.45
2023-12-14T04:41:42.759Z,14.18
2023-12-14T04:44:10.150Z,13.80
2023-12-14T04:46:37.489Z,13.15
2023-12-14T04:49:04.774Z,11.98
2023-12-14T04:51:32.026Z,13.98
2023-12-14T04:53:59.279Z,16.92
2023-12-14T04:56:26.554Z,11.00
2023-12-14T04:58:55.337Z,15.15
2023-12-14T05:01:22.758Z,15.35
2023-12-14T05:03:50.123Z,14.98
2023-12-14T05:06:17.620Z,13.15
2023-12-14T05:08:45.028Z,12.73
2023-12-14T05:11:13.610Z,13.45
2023-12-14T05:13:40.944Z,13.05
2023-12-14T05:16:14.480Z,10.60
2023-12-14T05:18:41.872Z,11.40
2023-12-14T05:21:09.193Z,12.15
2023-12-14T05:23:36.530Z,12.15
2023-12-14T05:26:04.183Z,15.75
2023-12-14T05:28:31.515Z,12.60
2023-12-14T05:30:58.851Z,11.85
2023-12-14T05:33:27.503Z,11.77
2023-12-14T05:35:54.768Z,9.50
2023-12-14T05:38:22.039Z,12.55
2023-12-14T05:40:49.332Z,11.35
2023-12-14T05:43:16.571Z,11.52
2023-12-14T05:45:44.064Z,11.10
2023-12-14T05:48:11.410Z,10.70
2023-12-14T05:50:40.122Z,9.70
2023-12-14T05:53:07.421Z,11.98
2023-12-14T05:55:34.718Z,12.05
2023-12-14T05:58:01.995Z,14.18
2023-12-14T06:00:29.330Z,9.70
2023-12-14T06:02:56.586Z,8.88
2023-12-14T06:05:23.931Z,10.45
2023-12-14T06:07:52.663Z,12.45
2023-12-14T06:10:20.372Z,11.43
2023-12-14T06:12:47.650Z,11.02
2023-12-14T06:15:15.058Z,11.60
2023-12-14T06:17:42.795Z,10.50
2023-12-14T06:20:12.608Z,8.50
2023-12-14T06:22:40.165Z,10.60
2023-12-14T06:25:09.656Z,11.93
2023-12-14T06:27:36.849Z,10.50
2023-12-14T06:30:04.699Z,10.00
2023-12-14T06:32:32.107Z,8.48
2023-12-14T06:34:59.568Z,9.32
2023-12-14T06:37:26.853Z,8.80
2023-12-14T06:39:54.100Z,9.93
2023-12-14T06:42:22.776Z,9.32
2023-12-14T06:44:50.044Z,11.48
2023-12-14T06:47:17.367Z,12.00
2023-12-14T06:49:44.699Z,12.15
2023-12-14T06:52:12.019Z,10.63
2023-12-14T06:54:39.253Z,9.55
2023-12-14T06:57:07.373Z,11.63
2023-12-14T06:59:36.061Z,10.98
2023-12-14T07:02:03.516Z,12.35
2023-12-14T07:04:30.808Z,11.85
2023-12-14T07:06:58.068Z,13.38
2023-12-14T07:09:25.364Z,10.80
2023-12-14T07:11:52.920Z,11.75
2023-12-14T07:14:21.589Z,11.52
2023-12-14T07:16:51.479Z,13.48
2023-12-14T07:19:18.699Z,9.75
2023-12-14T07:21:45.952Z,11.85
2023-12-14T07:24:13.172Z,10.55
2023-12-14T07:26:40.448Z,13.05
2023-12-14T07:29:07.757Z,12.07
2023-12-14T07:31:35.061Z,11.85
2023-12-14T07:34:03.789Z,10.45
2023-12-14T07:36:31.077Z,11.18
2023-12-14T07:38:58.316Z,13.80
2023-12-14T07:41:25.566Z,11.77
2023-12-14T07:43:52.862Z,12.43
2023-12-14T07:46:20.137Z,13.23
2023-12-14T07:48:47.418Z,13.18
2023-12-14T07:51:16.146Z,12.00
2023-12-14T07:53:43.398Z,16.00
2023-12-14T07:56:10.694Z,15.25
2023-12-14T07:58:38.089Z,13.15
2023-12-14T08:01:05.815Z,15.32
2023-12-14T08:03:33.234Z,15.77
2023-12-14T08:06:00.552Z,15.50
2023-12-14T08:08:29.249Z,15.52
2023-12-14T08:10:56.561Z,16.10
2023-12-14T08:13:23.840Z,12.63
2023-12-14T08:15:51.098Z,15.70
2023-12-14T08:18:18.446Z,14.48
2023-12-14T08:20:45.746Z,14.15
2023-12-14T08:23:13.068Z,13.63
2023-12-14T08:25:41.809Z,19.42
2023-12-14T08:28:09.121Z,16.00
2023-12-14T08:30:38.933Z,16.77
2023-12-14T08:33:06.257Z,15.20
2023-12-14T08:35:33.538Z,15.32
2023-12-14T08:38:00.821Z,16.35
2023-12-14T08:40:28.090Z,16.67
2023-12-14T08:42:56.810Z,15.68
2023-12-14T08:45:24.113Z,17.27
2023-12-14T08:47:51.515Z,17.15
2023-12-14T08:50:19.141Z,15.85
2023-12-14T08:52:46.398Z,13.70
2023-12-14T08:55:13.719Z,17.10
2023-12-14T08:57:41.022Z,16.52
2023-12-14T09:00:11.097Z,16.88
2023-12-14T09:02:38.641Z,16.13
2023-12-14T09:05:07.285Z,19.42
2023-12-14T09:10:01.768Z,13.85
2023-12-14T09:12:29.047Z,20.95
2023-12-14T09:14:56.383Z,16.35
2023-12-14T09:17:25.096Z,17.63
2023-12-14T09:19:52.363Z,15.00
2023-12-14T09:22:19.721Z,18.27
2023-12-14T09:24:46.988Z,19.50
2023-12-14T09:27:14.267Z,20.38
2023-12-14T09:29:41.487Z,16.67
2023-12-14T09:32:09.199Z,17.63
2023-12-14T09:34:38.020Z,16.77
2023-12-14T09:37:05.514Z,16.70
2023-12-14T09:39:32.806Z,16.48
2023-12-14T09:42:03.707Z,18.30
2023-12-14T09:44:31.337Z,18.85
2023-12-14T09:47:00.585Z,17.50
2023-12-14T09:49:28.206Z,16.45
2023-12-14T09:51:57.142Z,16.23
2023-12-14T09:54:24.717Z,15.55
2023-12-14T09:56:52.198Z,15.48
2023-12-14T09:59:19.715Z,16.02
2023-12-14T10:01:47.137Z,18.17
2023-12-14T10:04:16.426Z,19.17
2023-12-14T10:06:45.878Z,17.20
2023-12-14T10:09:14.818Z,18.45
2023-12-14T10:11:42.842Z,17.92
2023-12-14T10:14:20.154Z,17.83
2023-12-14T10:17:02.853Z,16.17
2023-12-14T10:19:31.549Z,13.75
2023-12-14T10:21:58.946Z,17.60
2023-12-14T10:24:27.561Z,17.92
2023-12-14T10:26:54.847Z,19.25
2023-12-14T10:29:22.157Z,18.02
2023-12-14T10:31:49.848Z,17.75
2023-12-14T10:34:17.274Z,18.17
2023-12-14T10:36:47.190Z,19.00
2023-12-14T10:39:15.911Z,16.20
2023-12-14T10:41:49.442Z,18.52
2023-12-14T10:44:33.038Z,17.58
2023-12-14T10:47:08.403Z,17.27
2023-12-14T10:49:36.084Z,16.50
2023-12-14T10:52:05.236Z,16.40
2023-12-14T10:54:35.996Z,16.65
2023-12-14T10:57:05.001Z,18.33
2023-12-14T10:59:32.256Z,17.40
2023-12-14T11:01:59.634Z,18.55
2023-12-14T11:04:27.551Z,22.05
2023-12-14T11:06:55.367Z,17.08
2023-12-14T11:09:24.122Z,22.52
2023-12-14T11:11:57.663Z,24.20
2023-12-14T11:14:27.149Z,26.73
2023-12-14T11:16:55.961Z,22.55
2023-12-14T11:19:31.126Z,21.70
2023-12-14T11:22:12.505Z,25.95
2023-12-14T11:24:43.015Z,19.83
2023-12-14T11:27:10.705Z,22.77
2023-12-14T11:29:39.842Z,21.13
2023-12-14T11:32:07.521Z,26.08
2023-12-14T11:34:34.772Z,25.58
2023-12-14T11:37:02.100Z,24.95
2023-12-14T11:39:31.528Z,24.38
2023-12-14T11:42:00.315Z,23.08
2023-12-14T11:44:27.647Z,24.20
2023-12-14T11:46:56.352Z,20.83
2023-12-14T11:49:25.743Z,21.02
2023-12-14T11:51:53.188Z,23.40
2023-12-14T11:54:20.449Z,19.65
2023-12-14T11:56:48.253Z,21.27
2023-12-14T11:59:16.263Z,22.25
2023-12-14T12:01:56.711Z,18.75
2023-12-14T12:04:24.142Z,19.67
2023-12-14T12:07:00.037Z,18.58
2023-12-14T12:09:38.170Z,22.08
2023-12-14T12:12:08.781Z,22.08
2023-12-14T12:14:36.902Z,20.92
2023-12-14T12:17:06.692Z,24.63
2023-12-14T12:19:34.784Z,20.77
2023-12-14T12:22:02.133Z,19.67
2023-12-14T12:24:31.155Z,19.63
2023-12-14T12:26:59.008Z,21.33
2023-12-14T12:29:26.219Z,20.92
2023-12-14T12:31:53.482Z,21.55
2023-12-14T12:34:22.132Z,20.02
2023-12-14T12:36:49.479Z,18.83
2023-12-14T12:39:16.692Z,21.00
2023-12-14T12:41:44.196Z,19.27
2023-12-14T12:44:11.473Z,19.50
2023-12-14T12:46:39.277Z,18.13
2023-12-14T12:49:06.804Z,20.77
2023-12-14T12:51:35.454Z,19.85
2023-12-14T12:54:10.143Z,21.05
2023-12-14T12:56:40.570Z,20.67
2023-12-14T12:59:10.010Z,22.35
2023-12-14T13:01:37.684Z,20.85
2023-12-14T13:04:04.964Z,23.60
2023-12-14T13:06:32.162Z,22.40
2023-12-14T13:09:00.755Z,23.25
2023-12-14T13:16:21.992Z,22.92
2023-12-14T13:18:49.326Z,21.33
2023-12-14T13:21:16.589Z,22.70
2023-12-14T13:23:43.838Z,22.15
2023-12-14T13:26:12.521Z,20.25
2023-12-14T13:28:39.863Z,20.75
2023-12-14T13:31:07.133Z,23.95
2023-12-14T13:33:34.505Z,16.77
2023-12-14T13:36:01.723Z,22.73
2023-12-14T13:38:29.046Z,21.17
2023-12-14T13:40:56.430Z,17.45
2023-12-14T13:43:25.033Z,19.02
2023-12-14T13:45:58.259Z,19.98
2023-12-14T13:48:32.966Z,16.35
2023-12-14T13:51:00.222Z,17.50
2023-12-14T13:53:27.474Z,19.02
2023-12-14T13:55:54.784Z,22.88
2023-12-14T13:58:22.016Z,21.05
2023-12-14T14:00:50.575Z,16.80
2023-12-14T14:03:17.812Z,18.25
2023-12-14T14:05:45.197Z,18.13
2023-12-14T14:08:17.585Z,18.20
2023-12-14T14:10:45.423Z,16.25
2023-12-14T14:13:12.752Z,18.45
2023-12-14T14:15:39.964Z,18.10
2023-12-14T14:18:08.687Z,17.52
2023-12-14T14:20:35.965Z,18.10
2023-12-14T14:23:03.274Z,15.88
2023-12-14T14:25:30.531Z,18.23
2023-12-14T14:27:57.752Z,13.52
2023-12-14T14:30:25.071Z,15.30
2023-12-14T14:32:52.515Z,17.25
2023-12-14T14:35:21.166Z,14.80
2023-12-14T14:37:48.635Z,15.45
2023-12-14T14:40:16.224Z,15.27
2023-12-14T14:42:44.116Z,13.77
2023-12-14T14:45:12.148Z,14.85
2023-12-14T14:47:40.969Z,15.98
2023-12-14T14:50:12.375Z,15.93
2023-12-14T14:52:41.456Z,14.38
2023-12-14T14:55:09.272Z,15.48
2023-12-14T14:57:36.498Z,16.58
2023-12-14T15:00:04.504Z,14.93
2023-12-14T15:02:31.743Z,17.25
2023-12-14T15:04:58.995Z,13.68
2023-12-14T15:07:26.314Z,14.50
2023-12-14T15:09:54.875Z,16.50
2023-12-14T15:12:22.119Z,14.13
2023-12-14T15:14:49.374Z,13.73
2023-12-14T15:17:16.623Z,14.40
2023-12-14T15:19:43.917Z,17.42
2023-12-14T15:22:11.158Z,15.50
2023-12-14T15:24:38.361Z,13.98
2023-12-14T15:27:09.302Z,14.68
2023-12-14T15:29:37.139Z,15.60
2023-12-14T15:32:04.878Z,16.38
2023-12-14T15:34:32.128Z,17.52
2023-12-14T15:36:59.352Z,13.95
2023-12-14T15:39:26.600Z,13.52
2023-12-14T15:41:53.845Z,18.27
2023-12-14T15:44:22.769Z,16.60
2023-12-14T15:46:50.108Z,14.43
2023-12-14T15:49:17.342Z,18.05
2023-12-14T15:51:44.585Z,19.02
2023-12-14T15:54:11.784Z,17.35
2023-12-14T15:56:38.972Z,16.67
2023-12-14T15:59:06.284Z,16.95
2023-12-14T16:01:34.986Z,16.88
2023-12-14T16:04:02.200Z,17.25
2023-12-14T16:06:29.456Z,16.88
2023-12-14T16:08:56.692Z,17.50
2023-12-14T16:11:23.986Z,14.85
2023-12-14T16:13:51.286Z,16.85
2023-12-14T16:16:18.504Z,15.27
2023-12-14T16:18:47.119Z,12.25
2023-12-14T16:21:14.523Z,15.90
2023-12-14T16:23:41.895Z,13.30
2023-12-14T16:26:12.544Z,16.77
2023-12-14T16:28:39.830Z,13.63
2023-12-14T16:31:08.019Z,14.23
2023-12-14T16:33:39.136Z,14.55
2023-12-14T16:36:12.613Z,14.55
2023-12-14T16:38:39.955Z,15.80
2023-12-14T16:41:07.326Z,12.65
2023-12-14T16:43:34.625Z,13.18
2023-12-14T16:46:01.844Z,16.48
2023-12-14T16:48:29.102Z,15.93
2023-12-14T16:50:56.477Z,14.02
2023-12-14T16:53:25.074Z,13.85
2023-12-14T16:55:56.239Z,15.23
2023-12-14T16:58:23.535Z,15.13
2023-12-14T17:00:50.919Z,14.98
2023-12-14T17:03:18.265Z,13.40
2023-12-14T17:05:45.535Z,16.02
2023-12-14T17:08:12.903Z,17.42
2023-12-14T17:10:41.671Z,20.40
2023-12-14T17:13:08.893Z,19.13
2023-12-14T17:15:36.135Z,21.95
2023-12-14T17:18:03.429Z,17.63
2023-12-14T17:20:30.780Z,19.30
2023-12-14T17:22:58.023Z,13.57
2023-12-14T17:25:25.310Z,15.00
2023-12-14T17:27:53.876Z,14.63
2023-12-14T17:37:42.220Z,12.75
2023-12-14T17:40:10.174Z,15.20
2023-12-14T17:42:37.604Z,13.35
2023-12-14T17:45:07.791Z,13.05
2023-12-14T17:47:35.226Z,14.88
2023-12-14T17:50:02.963Z,16.33
2023-12-14T17:52:30.229Z,17.33
2023-12-14T17:54:57.476Z,20.45
2023-12-14T17:57:24.667Z,17.35
2023-12-14T17:59:51.899Z,19.95
2023-12-14T18:02:20.572Z,15.52
2023-12-14T18:04:47.857Z,17.02
2023-12-14T18:07:15.096Z,17.50
2023-12-14T18:09:42.328Z,19.90
2023-12-14T18:12:09.517Z,17.13
2023-12-14T18:14:36.725Z,16.98
2023-12-14T18:17:04.443Z,16.08
2023-12-14T18:19:33.150Z,17.02
2023-12-14T18:22:00.423Z,17.33
2023-12-14T18:24:27.671Z,13.75
2023-12-14T18:26:54.907Z,14.93
2023-12-14T18:29:22.178Z,13.50
2023-12-14T18:31:49.488Z,16.17
2023-12-14T18:34:16.735Z,15.13
2023-12-14T18:36:45.329Z,14.82
2023-12-14T18:41:39.514Z,12.90
2023-12-14T18:44:06.806Z,14.30
2023-12-14T18:46:34.135Z,13.60
2023-12-14T18:49:01.417Z,15.68
2023-12-14T18:51:28.702Z,16.42
2023-12-14T18:53:57.360Z,17.77
2023-12-14T18:56:24.584Z,13.65
2023-12-14T18:58:51.867Z,13.85
2023-12-14T19:01:19.137Z,14.27
2023-12-14T19:03:46.407Z,15.13
2023-12-14T19:06:13.810Z,12.60
2023-12-14T19:08:41.480Z,16.83
2023-12-14T19:11:17.058Z,13.73
2023-12-14T19:13:44.728Z,14.00
2023-12-14T19:16:12.396Z,14.82
2023-12-14T19:18:39.753Z,14.95
2023-12-14T19:21:07.325Z,16.35
2023-12-14T19:23:34.534Z,12.85
2023-12-14T19:26:01.786Z,14.65
2023-12-14T19:28:30.380Z,14.48
2023-12-14T19:30:57.685Z,15.95
2023-12-14T19:33:25.084Z,15.20
2023-12-14T19:35:52.411Z,14.27
2023-12-14T19:38:19.643Z,14.60
2023-12-14T19:40:46.883Z,13.95
2023-12-14T19:43:14.122Z,12.68
2023-12-14T19:45:42.615Z,17.35
2023-12-14T19:57:57.876Z,13.25
2023-12-14T20:00:25.082Z,12.48
2023-12-14T20:02:53.698Z,15.10
2023-12-14T20:05:21.162Z,14.02
2023-12-14T20:07:48.474Z,15.18
2023-12-14T20:10:15.896Z,14.18
2023-12-14T20:12:43.128Z,15.02
2023-12-14T20:15:12.651Z,15.57
2023-12-14T20:17:40.232Z,14.38
2023-12-14T20:20:10.232Z,13.38
2023-12-14T20:22:37.515Z,15.25
2023-12-14T20:25:06.179Z,16.67
2023-12-14T20:27:33.844Z,14.32
2023-12-14T20:30:01.346Z,19.15
2023-12-14T20:32:28.709Z,16.70
2023-12-14T20:34:56.029Z,18.65
2023-12-14T20:37:24.597Z,16.08
2023-12-14T20:42:20.315Z,15.05
2023-12-14T20:44:47.518Z,17.70
2023-12-14T20:47:14.824Z,15.20
2023-12-14T20:49:42.123Z,16.77
2023-12-14T20:52:09.370Z,16.10
2023-12-14T20:54:37.962Z,13.95
2023-12-14T20:59:32.389Z,15.50
2023-12-14T21:01:59.647Z,17.08
2023-12-14T21:04:26.907Z,16.77
2023-12-14T21:06:54.134Z,18.40
2023-12-14T21:09:21.332Z,17.05
2023-12-14T21:11:49.881Z,16.02
2023-12-14T21:16:44.612Z,17.90
2023-12-14T21:19:11.890Z,20.95
2023-12-14T21:21:39.133Z,20.60
2023-12-14T21:24:06.503Z,18.65
2023-12-14T21:26:33.751Z,17.70
2023-12-14T21:29:02.385Z,18.17
2023-12-14T21:33:56.586Z,16.83
2023-12-14T21:36:23.855Z,16.38
2023-12-14T21:38:51.092Z,17.35
2023-12-14T21:41:18.385Z,17.88
2023-12-14T21:43:45.619Z,16.60
2023-12-14T21:46:14.224Z,19.48
2023-12-14T21:51:12.209Z,15.63
2023-12-14T21:53:39.428Z,16.30
2023-12-14T21:56:07.539Z,15.30
2023-12-14T21:58:34.764Z,17.38
2023-12-14T22:01:02.082Z,14.88
2023-12-14T22:03:30.787Z,17.83
2023-12-14T22:05:58.165Z,17.13
2023-12-14T22:08:25.456Z,17.10
2023-12-14T22:10:52.734Z,17.17
2023-12-14T22:13:19.947Z,18.02
2023-12-14T22:15:47.165Z,16.15
2023-12-14T22:18:14.480Z,15.23
2023-12-14T22:20:43.124Z,17.98
2023-12-14T22:25:37.250Z,17.95
2023-12-14T22:28:04.705Z,14.73
2023-12-14T22:30:31.942Z,14.73
2023-12-14T22:32:59.320Z,16.58
2023-12-14T22:35:26.751Z,16.55
2023-12-14T22:37:55.544Z,16.40
2023-12-14T22:40:22.785Z,18.65
2023-12-14T22:42:50.008Z,19.02
2023-12-14T22:45:17.240Z,19.13
2023-12-14T22:47:44.601Z,18.27
2023-12-14T22:50:12.108Z,18.73
2023-12-14T22:52:39.388Z,16.67
2023-12-14T22:55:08.725Z,19.05
2023-12-14T22:57:36.158Z,15.90
2023-12-14T23:00:04.183Z,16.40
2023-12-14T23:02:31.511Z,18.00
2023-12-14T23:04:58.800Z,17.00
2023-12-14T23:07:26.062Z,21.55
2023-12-14T23:09:53.316Z,20.33
2023-12-14T23:12:22.126Z,18.70
2023-12-14T23:14:49.428Z,19.95
2023-12-14T23:17:16.710Z,18.55
2023-12-14T23:19:43.960Z,18.35
2023-12-14T23:22:11.259Z,20.70
2023-12-14T23:24:38.580Z,16.50
2023-12-14T23:27:05.822Z,18.58
2023-12-14T23:29:34.428Z,17.83
2023-12-14T23:36:55.687Z,19.27
2023-12-14T23:39:22.985Z,22.30
2023-12-14T23:41:50.247Z,19.60
2023-12-14T23:44:17.574Z,22.27
2023-12-14T23:46:46.223Z,20.05
2023-12-14T23:51:40.527Z,16.50
2023-12-14T23:54:07.787Z,16.73
2023-12-14T23:56:35.059Z,19.83
2023-12-14T23:59:02.359Z,19.10
